Tie Siding, Wyoming
Current Conditions -  °F | °C
As of 5:53 PM on Saturday 20 Dec 2014 (Local Time) from KLAR Reporting Station
Clear Clear  
Wind Chill: 19°   Ceiling: Unl
Heat Index: 30°   Visibility: 10mi
Dew Point: 21°   Wind: 15mph
Humidity: 69%   Direction: 230°SW
Pressure: 29.93"   Gusts: NA
Location:  41.09°N, 105.49°W
Report Text: KLAR 210053Z AUTO 23013KT 10SM CLR M01/M06 A2993 RMK AO2 SLP143 T10111061
Loading
Personal Weather Stations






























Interactive Weather Map New forecast layout! Learn more

10-Day Weather Forecast

Advertisements
Track Severe Weather on mobile